Time;durP1;ratioP1;P1;durP2;ratioP2;P2;SDS_P1;SDS_P2;PMS_P1;PMS_P2;Temp;Humidity;BMP_temperature;BMP_pressure;BME280_temperature;BME280_humidity;BME280_pressure;Samples;Min_cycle;Max_cycle;Signal;HPM_P1;HPM_P2
2021/09/12 00:00:43;;;;;;;1.30;1.20;;;;;;;23.64;58.77;99794.41;2061359;28;20034;-42
2021/09/12 00:01:43;;;;;;;2.73;1.50;;;;;;;23.64;58.79;99794.41;2052044;28;20859;-41
2021/09/12 00:02:44;;;;;;;1.63;1.30;;;;;;;23.64;58.91;99794.41;2059001;28;20136;-42
2021/09/12 00:03:44;;;;;;;1.30;1.20;;;;;;;23.64;58.80;99792.56;2063871;28;20030;-42
2021/09/12 00:04:45;;;;;;;1.73;1.63;;;;;;;23.63;58.77;99793.56;2062586;28;20219;-42
2021/09/12 00:05:45;;;;;;;2.03;1.63;;;;;;;23.63;58.90;99796.31;2056370;28;20033;-42
2021/09/12 00:06:46;;;;;;;1.43;1.33;;;;;;;23.63;58.84;99798.22;2058748;28;20306;-43
2021/09/12 00:07:46;;;;;;;1.43;1.30;;;;;;;23.63;58.84;99792.72;2056349;28;20022;-42
2021/09/12 00:08:47;;;;;;;2.00;1.50;;;;;;;23.62;58.79;99794.63;2057806;28;20165;-42
2021/09/12 00:09:47;;;;;;;1.97;1.77;;;;;;;23.64;58.70;99797.16;2060651;28;20778;-42
2021/09/12 00:10:48;;;;;;;2.07;1.60;;;;;;;23.65;58.74;99791.50;2057248;28;20388;-42
2021/09/12 00:11:48;;;;;;;1.53;1.43;;;;;;;23.64;58.74;99792.56;2068927;28;20040;-42
2021/09/12 00:12:49;;;;;;;2.10;1.50;;;;;;;23.64;58.78;99783.41;2056623;28;20060;-42
2021/09/12 00:13:50;;;;;;;1.50;1.30;;;;;;;23.66;58.73;99789.59;2060036;28;20123;-42
2021/09/12 00:14:54;;;;;;;1.98;1.67;;;;;;;23.64;58.86;99787.03;2053617;28;20688;-42
2021/09/12 00:15:54;;;;;;;1.60;1.50;;;;;;;23.65;58.54;99790.66;2053418;28;20622;-41
2021/09/12 00:16:54;;;;;;;1.53;1.43;;;;;;;23.63;58.94;99793.56;2066302;28;20144;-42
2021/09/12 00:17:55;;;;;;;1.97;1.77;;;;;;;23.65;58.73;99790.66;2055774;28;20125;-41
2021/09/12 00:18:56;;;;;;;1.50;1.40;;;;;;;23.65;58.65;99796.16;2063114;28;20131;-42
2021/09/12 00:19:56;;;;;;;1.50;1.40;;;;;;;23.65;58.74;99796.16;2060962;28;20061;-41
2021/09/12 00:20:57;;;;;;;1.87;1.20;;;;;;;23.65;58.68;99791.50;2053460;28;20053;-41
2021/09/12 00:21:57;;;;;;;1.73;1.60;;;;;;;23.64;58.76;99795.31;2065347;28;20025;-41
2021/09/12 00:22:58;;;;;;;1.30;1.20;;;;;;;23.64;58.80;99788.91;2058436;28;20553;-42
2021/09/12 00:23:58;;;;;;;1.37;1.27;;;;;;;23.63;58.68;99788.06;2062281;28;20040;-42
2021/09/12 00:24:59;;;;;;;2.47;1.70;;;;;;;23.63;58.66;99793.56;2060670;28;20049;-42
2021/09/12 00:26:00;;;;;;;1.97;1.47;;;;;;;23.64;58.70;99788.91;2055135;28;20310;-42
2021/09/12 00:27:00;;;;;;;1.57;1.30;;;;;;;23.65;58.70;99790.66;2053981;28;20116;-42
2021/09/12 00:28:01;;;;;;;1.53;1.43;;;;;;;23.63;58.72;99788.06;2052964;28;20049;-42
2021/09/12 00:29:02;;;;;;;1.57;1.47;;;;;;;23.63;58.75;99779.81;2057530;28;20025;-42
2021/09/12 00:30:05;;;;;;;1.67;1.58;;;;;;;23.63;58.72;99787.22;2067835;28;20514;-42
2021/09/12 00:31:06;;;;;;;1.65;1.48;;;;;;;23.63;58.77;99787.22;2056825;28;20410;-42
2021/09/12 00:32:07;;;;;;;1.50;1.40;;;;;;;23.63;58.74;99784.47;2061907;28;20036;-43
2021/09/12 00:33:07;;;;;;;1.73;1.47;;;;;;;23.62;58.84;99786.38;2054036;28;20018;-42
2021/09/12 00:34:08;;;;;;;1.90;1.70;;;;;;;23.63;58.76;99784.47;2058580;28;20034;-42
2021/09/12 00:35:09;;;;;;;2.57;1.57;;;;;;;23.62;58.64;99785.53;2065875;28;20029;-42
2021/09/12 00:36:10;;;;;;;1.65;1.48;;;;;;;23.62;58.76;99782.78;2053351;28;20061;-42
2021/09/12 00:37:10;;;;;;;1.47;1.30;;;;;;;23.63;58.78;99785.31;2056741;28;20014;-42
2021/09/12 00:38:12;;;;;;;1.93;1.63;;;;;;;23.63;58.75;99784.47;2060200;28;20022;-42
2021/09/12 00:39:13;;;;;;;1.42;1.33;;;;;;;23.63;58.68;99779.81;2057041;28;20033;-42
2021/09/12 00:40:13;;;;;;;1.60;1.50;;;;;;;23.63;58.90;99781.72;2064849;28;20032;-41
2021/09/12 00:41:14;;;;;;;1.70;1.60;;;;;;;23.61;58.74;99781.91;2059027;28;20025;-41
2021/09/12 00:42:14;;;;;;;1.60;1.50;;;;;;;23.63;58.77;99778.97;2059309;28;20470;-42
2021/09/12 00:43:15;;;;;;;1.87;1.77;;;;;;;23.62;58.74;99782.78;2052645;28;20067;-42
2021/09/12 00:44:16;;;;;;;1.90;1.70;;;;;;;23.61;58.80;99772.78;2059398;28;20062;-42
2021/09/12 00:45:18;;;;;;;1.33;1.23;;;;;;;23.62;58.76;99771.78;2059793;28;20110;-42
2021/09/12 00:46:19;;;;;;;2.03;1.60;;;;;;;23.63;58.79;99778.97;2056424;28;20034;-42
2021/09/12 00:47:20;;;;;;;1.80;1.33;;;;;;;23.63;58.95;99778.97;2057407;28;20439;-42
2021/09/12 00:48:21;;;;;;;1.83;1.40;;;;;;;23.62;58.52;99778.13;2061165;28;20113;-42
2021/09/12 00:49:22;;;;;;;1.65;1.30;;;;;;;23.62;58.76;99774.53;2055071;28;20034;-42
2021/09/12 00:50:22;;;;;;;1.60;1.47;;;;;;;23.63;58.84;99781.72;2059741;28;20033;-42
2021/09/12 00:51:23;;;;;;;1.70;1.60;;;;;;;23.61;58.73;99778.28;2052733;28;20028;-42
2021/09/12 00:52:24;;;;;;;1.50;1.40;;;;;;;23.62;58.86;99774.53;2060451;28;20534;-41
2021/09/12 00:53:29;;;;;;;1.35;1.25;;;;;;;23.62;58.69;99780.03;2063305;28;20045;-42
2021/09/12 00:54:30;;;;;;;1.75;1.50;;;;;;;23.62;58.92;99777.28;2059977;28;20030;-42
2021/09/12 00:55:31;;;;;;;1.60;1.50;;;;;;;23.63;58.75;99781.72;2061554;28;20117;-48
2021/09/12 00:56:35;;;;;;;1.50;1.40;;;;;;;23.62;58.68;99780.03;2062118;28;20022;-47
2021/09/12 00:57:36;;;;;;;1.88;1.60;;;;;;;23.62;58.86;99778.13;2063849;28;20052;-47
2021/09/12 00:58:37;;;;;;;1.73;1.63;;;;;;;23.62;58.85;99780.03;2058222;28;20428;-47
2021/09/12 00:59:40;;;;;;;2.10;1.55;;;;;;;23.62;58.77;99771.78;2057900;28;20091;-47
2021/09/12 01:00:44;;;;;;;1.17;1.08;;;;;;;23.60;58.75;99774.69;2056720;28;20073;-47
2021/09/12 01:01:45;;;;;;;1.50;1.40;;;;;;;23.62;58.70;99774.53;2053846;28;20302;-47
2021/09/12 01:02:46;;;;;;;2.00;1.80;;;;;;;23.61;58.71;99772.78;2058756;28;20316;-47
2021/09/12 01:03:46;;;;;;;1.97;1.40;;;;;;;23.60;58.58;99774.69;2062743;28;20029;-47
2021/09/12 01:04:47;;;;;;;1.87;1.37;;;;;;;23.62;58.84;99771.78;2061980;28;20053;-47
2021/09/12 01:05:48;;;;;;;1.67;1.50;;;;;;;23.61;58.81;99772.78;2062441;28;20030;-47
2021/09/12 01:06:49;;;;;;;1.70;1.60;;;;;;;23.61;58.66;99767.28;2058573;28;20101;-47
2021/09/12 01:07:49;;;;;;;2.25;1.55;;;;;;;23.61;58.73;99775.53;2059955;28;20030;-47
2021/09/12 01:08:49;;;;;;;1.40;1.30;;;;;;;23.61;58.76;99776.41;2063636;28;20444;-47
2021/09/12 01:09:51;;;;;;;1.53;1.30;;;;;;;23.61;58.79;99772.78;2060692;28;20036;-48
2021/09/12 01:10:51;;;;;;;2.15;1.60;;;;;;;23.60;58.73;99765.59;2061247;28;20018;-47
2021/09/12 01:11:57;;;;;;;2.10;1.40;;;;;;;23.59;58.79;99770.25;2053762;28;20078;-47
2021/09/12 01:12:58;;;;;;;1.30;1.20;;;;;;;23.61;58.98;99767.28;2061366;28;20061;-49
2021/09/12 01:13:58;;;;;;;2.13;1.90;;;;;;;23.61;58.80;99767.28;2062669;28;20642;-47
2021/09/12 01:14:59;;;;;;;1.73;1.50;;;;;;;23.60;58.75;99771.09;2062632;28;20529;-47
2021/09/12 01:16:00;;;;;;;1.67;1.57;;;;;;;23.61;58.77;99770.03;2058165;28;20033;-46
2021/09/12 01:17:01;;;;;;;1.53;1.43;;;;;;;23.61;58.67;99761.78;2059280;28;20316;-47
2021/09/12 01:18:01;;;;;;;2.00;1.52;;;;;;;23.60;58.77;99771.94;2057400;28;20501;-47
2021/09/12 01:19:02;;;;;;;1.60;1.50;;;;;;;23.61;58.79;99770.03;2063267;28;20029;-47
2021/09/12 01:20:04;;;;;;;1.88;1.77;;;;;;;23.61;58.57;99770.88;2059935;28;20379;-47
2021/09/12 01:21:05;;;;;;;1.67;1.58;;;;;;;23.62;58.70;99766.25;2061441;28;20038;-48
2021/09/12 01:22:07;;;;;;;2.10;1.70;;;;;;;23.60;58.75;99760.09;2060551;28;20026;-47
2021/09/12 01:23:07;;;;;;;1.75;1.33;;;;;;;23.61;58.81;99764.53;2059944;28;20324;-47
2021/09/12 01:24:09;;;;;;;1.63;1.20;;;;;;;23.60;58.78;99760.09;2064896;28;20120;-47
2021/09/12 01:25:10;;;;;;;2.00;1.75;;;;;;;23.61;58.80;99759.03;2060197;28;20070;-48
2021/09/12 01:26:11;;;;;;;1.85;1.38;;;;;;;23.60;58.74;99760.94;2062442;28;20018;-47
2021/09/12 01:27:11;;;;;;;2.00;1.80;;;;;;;23.61;58.64;99756.28;2060059;28;20373;-47
2021/09/12 01:28:12;;;;;;;1.70;1.60;;;;;;;23.60;58.67;99754.59;2059136;28;20566;-47
2021/09/12 01:29:16;;;;;;;3.30;1.57;;;;;;;23.59;58.78;99758.38;2063798;28;20026;-47
2021/09/12 01:30:17;;;;;;;1.90;1.70;;;;;;;23.60;58.84;99754.59;2059161;28;20022;-47
2021/09/12 01:31:26;;;;;;;2.00;1.53;;;;;;;23.59;58.69;99752.84;2062417;28;20034;-47
2021/09/12 01:32:27;;;;;;;1.58;1.38;;;;;;;23.61;58.70;99753.53;2066985;28;20021;-50
2021/09/12 01:33:27;;;;;;;1.50;1.40;;;;;;;23.60;58.71;99754.59;2055978;28;20614;-47
2021/09/12 01:34:28;;;;;;;1.77;1.40;;;;;;;23.59;58.89;99755.63;2060557;28;20396;-47
2021/09/12 01:35:28;;;;;;;1.67;1.20;;;;;;;23.59;58.81;99747.34;2061151;28;20180;-47
2021/09/12 01:36:29;;;;;;;1.90;1.53;;;;;;;23.58;58.77;99751.16;2060047;28;20234;-47
2021/09/12 01:37:30;;;;;;;1.70;1.60;;;;;;;23.59;58.69;99752.84;2061069;28;20117;-47
2021/09/12 01:38:30;;;;;;;2.83;1.37;;;;;;;23.58;58.65;99757.50;2061267;28;20033;-48
2021/09/12 01:39:31;;;;;;;2.00;1.53;;;;;;;23.60;58.64;99760.94;2065692;28;20676;-47
2021/09/12 01:40:31;;;;;;;1.63;1.30;;;;;;;23.60;58.70;99754.59;2059106;28;20036;-47
2021/09/12 01:41:33;;;;;;;1.53;1.43;;;;;;;23.59;58.69;99752.84;2060044;28;20451;-47
2021/09/12 01:42:33;;;;;;;1.40;1.30;;;;;;;23.60;58.72;99754.59;2067928;28;20024;-47
2021/09/12 01:43:34;;;;;;;1.63;1.53;;;;;;;23.60;58.62;99757.34;2059173;28;20069;-47
2021/09/12 01:44:34;;;;;;;1.30;1.20;;;;;;;23.60;58.79;99760.09;2060055;28;20017;-46
2021/09/12 01:45:34;;;;;;;1.77;1.47;;;;;;;23.59;58.72;99750.13;2060291;28;20028;-47
2021/09/12 01:46:35;;;;;;;1.87;1.63;;;;;;;23.59;58.64;99752.84;2058742;28;20549;-47
2021/09/12 01:47:35;;;;;;;1.40;1.30;;;;;;;23.58;58.71;99746.50;2061710;28;20021;-47
2021/09/12 01:48:36;;;;;;;2.77;1.90;;;;;;;23.59;58.71;99748.25;2054470;28;20054;-47
2021/09/12 01:49:36;;;;;;;1.33;1.23;;;;;;;23.59;58.67;99747.34;2068347;28;20313;-47
2021/09/12 01:50:37;;;;;;;2.00;1.80;;;;;;;23.60;58.71;99749.94;2056654;28;20026;-47
2021/09/12 01:51:38;;;;;;;1.47;1.37;;;;;;;23.59;58.59;99747.34;2060802;28;20745;-47
2021/09/12 01:52:38;;;;;;;1.63;1.50;;;;;;;23.59;58.65;99748.25;2059439;28;20021;-47
2021/09/12 01:53:40;;;;;;;1.90;1.50;;;;;;;23.59;58.58;99748.25;2060446;28;20021;-47
2021/09/12 01:54:41;;;;;;;;;;;;;;;23.52;58.79;99753.63;2064525;28;20501;-47
2021/09/12 01:55:41;;;;;;;1.52;1.33;;;;;;;23.52;58.74;99750.88;2059762;28;20248;-47
2021/09/12 01:56:43;;;;;;;1.20;1.10;;;;;;;23.54;58.69;99746.03;2062748;28;20024;-47
2021/09/12 01:57:44;;;;;;;1.23;1.13;;;;;;;23.57;58.75;99749.44;2059478;28;20386;-47
2021/09/12 01:58:44;;;;;;;1.30;1.20;;;;;;;23.56;58.75;99747.75;2060377;28;20034;-47
2021/09/12 01:59:44;;;;;;;1.40;1.20;;;;;;;23.56;58.79;99748.59;2060704;28;20325;-47
2021/09/12 02:00:45;;;;;;;1.57;1.33;;;;;;;23.57;58.69;99749.44;2064700;28;20620;-47
2021/09/12 02:01:46;;;;;;;1.50;1.33;;;;;;;23.57;58.59;99749.44;2055791;28;20033;-47
2021/09/12 02:02:46;;;;;;;1.60;1.30;;;;;;;23.58;58.66;99748.41;2061186;28;20652;-47
2021/09/12 02:03:48;;;;;;;1.73;1.40;;;;;;;23.57;58.62;99749.44;2068324;28;20044;-47
2021/09/12 02:04:49;;;;;;;1.60;1.38;;;;;;;23.58;58.65;99745.66;2059707;28;20033;-47
2021/09/12 02:05:49;;;;;;;1.90;1.47;;;;;;;23.57;58.68;99750.31;2062830;28;20018;-47
2021/09/12 02:06:50;;;;;;;1.37;1.27;;;;;;;23.59;58.75;99747.34;2061287;28;20033;-47
2021/09/12 02:07:50;;;;;;;1.93;1.67;;;;;;;23.58;58.57;99757.50;2059531;28;20018;-47
2021/09/12 02:08:50;;;;;;;1.73;1.43;;;;;;;23.58;58.67;99748.41;2066036;28;20037;-48
2021/09/12 02:09:51;;;;;;;1.63;1.40;;;;;;;23.58;58.64;99751.16;2061383;28;20033;-47
2021/09/12 02:10:52;;;;;;;1.53;1.43;;;;;;;23.58;58.61;99742.91;2059730;28;20074;-47
2021/09/12 02:11:53;;;;;;;1.80;1.57;;;;;;;23.58;58.76;99748.41;2065483;28;20017;-47
2021/09/12 02:12:53;;;;;;;1.88;1.60;;;;;;;23.57;58.67;99743.94;2059496;28;20434;-47
2021/09/12 02:13:54;;;;;;;1.93;1.80;;;;;;;23.57;58.71;99749.44;2059080;28;20026;-49
2021/09/12 02:14:54;;;;;;;2.43;1.30;;;;;;;23.57;58.79;99743.94;2060822;28;20042;-49
2021/09/12 02:15:55;;;;;;;2.33;1.33;;;;;;;23.58;58.73;99740.16;2061202;28;20018;-42
2021/09/12 02:16:55;;;;;;;1.87;1.40;;;;;;;23.57;58.60;99743.94;2059396;28;20034;-41
2021/09/12 02:17:56;;;;;;;1.93;1.37;;;;;;;23.58;58.46;99742.91;2059599;28;20034;-41
2021/09/12 02:18:56;;;;;;;1.67;1.50;;;;;;;23.57;58.65;99750.31;2057605;28;20026;-41
2021/09/12 02:19:57;;;;;;;2.07;1.50;;;;;;;23.57;58.69;99743.94;2061608;28;20026;-42
2021/09/12 02:20:57;;;;;;;1.40;1.30;;;;;;;23.57;58.55;99749.44;2061117;28;20033;-40
2021/09/12 02:21:58;;;;;;;1.57;1.47;;;;;;;23.58;58.63;99740.16;2058306;28;20014;-41
2021/09/12 02:22:58;;;;;;;1.40;1.10;;;;;;;23.58;58.61;99746.50;2061570;28;20030;-41
2021/09/12 02:23:58;;;;;;;2.17;1.40;;;;;;;23.58;58.64;99737.41;2060523;28;20441;-41
2021/09/12 02:24:59;;;;;;;1.67;1.10;;;;;;;23.57;58.81;99743.94;2056672;28;20030;-41
2021/09/12 02:25:59;;;;;;;2.23;1.60;;;;;;;23.57;58.69;99738.44;2062626;28;20064;-41
2021/09/12 02:27:00;;;;;;;1.47;1.37;;;;;;;23.58;58.59;99745.66;2057753;28;20109;-41
2021/09/12 02:28:02;;;;;;;1.50;1.20;;;;;;;23.58;58.72;99742.91;2061538;28;20428;-41
2021/09/12 02:29:02;;;;;;;2.25;1.67;;;;;;;23.57;58.61;99743.94;2059440;28;20033;-41
2021/09/12 02:30:05;;;;;;;1.40;1.30;;;;;;;23.58;58.64;99740.16;2059102;28;20102;-41
2021/09/12 02:31:06;;;;;;;1.90;1.70;;;;;;;23.58;58.65;99745.66;2070380;28;20037;-41
2021/09/12 02:32:06;;;;;;;1.87;1.73;;;;;;;23.56;58.91;99739.50;2060295;28;20527;-41
2021/09/12 02:33:07;;;;;;;2.10;1.40;;;;;;;23.56;58.65;99748.59;2062462;28;20027;-41
2021/09/12 02:34:07;;;;;;;1.87;1.57;;;;;;;23.56;58.68;99743.09;2061878;28;20629;-41
2021/09/12 02:35:08;;;;;;;1.83;1.50;;;;;;;23.57;58.60;99746.69;2059220;28;20026;-41
2021/09/12 02:36:09;;;;;;;1.25;1.15;;;;;;;23.54;58.69;99737.78;2061405;28;20488;-42
2021/09/12 02:37:09;;;;;;;1.50;1.27;;;;;;;23.57;58.60;99743.94;2056709;28;20075;-42
2021/09/12 02:38:12;;;;;;;1.40;1.30;;;;;;;23.54;58.57;99735.03;2057871;28;20033;-42
2021/09/12 02:39:13;;;;;;;1.42;1.15;;;;;;;23.56;58.60;99736.75;2067797;28;20477;-41
2021/09/12 02:40:13;;;;;;;2.30;1.67;;;;;;;23.56;58.59;99739.50;2070514;28;20071;-41
2021/09/12 02:41:14;;;;;;;2.43;1.77;;;;;;;23.57;58.53;99732.94;2058083;28;20027;-42
2021/09/12 02:42:15;;;;;;;1.97;1.63;;;;;;;23.56;58.63;99743.09;2060871;28;20672;-42
2021/09/12 02:43:15;;;;;;;1.90;1.50;;;;;;;23.56;58.66;99736.75;2060272;28;20034;-41
2021/09/12 02:44:16;;;;;;;1.90;1.57;;;;;;;23.56;58.63;99736.75;2062325;28;20026;-41
2021/09/12 02:45:16;;;;;;;1.77;1.40;;;;;;;23.56;58.61;99743.09;2062278;28;20029;-41
2021/09/12 02:46:17;;;;;;;1.43;1.33;;;;;;;23.56;58.61;99737.59;2059170;28;20041;-41
2021/09/12 02:47:19;;;;;;;1.37;1.10;;;;;;;23.59;58.42;99736.34;2059944;28;20018;-41
2021/09/12 02:48:19;;;;;;;1.30;1.20;;;;;;;23.57;58.54;99738.44;2062525;28;20025;-41
2021/09/12 02:49:19;;;;;;;1.47;1.37;;;;;;;23.57;58.60;99732.94;2061998;28;20121;-41
2021/09/12 02:50:20;;;;;;;1.37;1.27;;;;;;;23.57;58.65;99735.69;2060420;28;20026;-41
2021/09/12 02:51:20;;;;;;;1.83;1.73;;;;;;;23.57;58.75;99727.44;2060880;28;20327;-41
2021/09/12 02:52:21;;;;;;;3.00;1.77;;;;;;;23.57;58.68;99732.94;2063904;28;20921;-42
2021/09/12 02:53:21;;;;;;;1.40;1.30;;;;;;;23.56;58.74;99731.22;2062138;28;20067;-41
2021/09/12 02:54:22;;;;;;;1.60;1.50;;;;;;;23.56;58.61;99733.97;2064274;28;20050;-41
2021/09/12 02:55:23;;;;;;;1.50;1.40;;;;;;;23.56;58.73;99736.75;2060752;28;20104;-41
2021/09/12 02:56:23;;;;;;;1.37;1.27;;;;;;;23.56;58.61;99733.97;2060292;28;20128;-41
2021/09/12 02:57:24;;;;;;;1.87;1.60;;;;;;;23.54;58.71;99735.03;2062646;28;20283;-41
2021/09/12 02:58:24;;;;;;;2.47;1.30;;;;;;;23.54;58.63;99729.53;2060069;28;20764;-41
2021/09/12 02:59:24;;;;;;;1.80;1.47;;;;;;;23.53;58.68;99730.56;2055934;28;20045;-41
2021/09/12 03:00:25;;;;;;;1.20;1.10;;;;;;;23.54;58.73;99735.03;2056368;28;20905;-41
2021/09/12 03:01:25;;;;;;;1.60;1.50;;;;;;;23.54;58.63;99728.66;2058817;28;20468;-41
2021/09/12 03:02:26;;;;;;;1.43;1.27;;;;;;;23.54;58.64;99728.66;2058667;28;20688;-41
2021/09/12 03:03:27;;;;;;;1.73;1.63;;;;;;;23.56;58.65;99736.75;2058660;28;20018;-48
2021/09/12 03:04:28;;;;;;;1.60;1.13;;;;;;;23.56;58.59;99732.09;2062378;28;20474;-48
2021/09/12 03:05:28;;;;;;;1.47;1.37;;;;;;;23.54;58.54;99724.03;2061135;28;20034;-49
2021/09/12 03:06:29;;;;;;;2.13;1.60;;;;;;;23.53;58.69;99722.31;2060325;28;20045;-48
2021/09/12 03:07:29;;;;;;;2.03;1.60;;;;;;;23.53;58.70;99729.72;2058890;28;20030;-49
2021/09/12 03:08:29;;;;;;;1.63;1.43;;;;;;;23.53;58.87;99725.06;2058310;28;20030;-49
2021/09/12 03:09:30;;;;;;;2.00;1.47;;;;;;;23.54;58.70;99728.66;2057560;28;20432;-49
2021/09/12 03:10:30;;;;;;;2.93;1.47;;;;;;;23.54;58.70;99732.28;2057756;28;20033;-48
2021/09/12 03:11:31;;;;;;;2.00;1.80;;;;;;;23.53;58.73;99727.81;2057426;28;20065;-48
2021/09/12 03:12:31;;;;;;;1.60;1.50;;;;;;;23.54;58.69;99723.16;2058198;28;20025;-49
2021/09/12 03:13:33;;;;;;;1.63;1.53;;;;;;;23.56;58.67;99728.47;2062575;28;20029;-48
2021/09/12 03:14:34;;;;;;;1.63;1.30;;;;;;;23.53;58.59;99725.06;2059422;28;20037;-48
2021/09/12 03:15:35;;;;;;;1.40;1.27;;;;;;;23.53;58.70;99727.81;2060383;28;20033;-49
2021/09/12 03:16:35;;;;;;;1.60;1.40;;;;;;;23.53;58.57;99726.97;2060719;28;20098;-49
2021/09/12 03:17:36;;;;;;;1.80;1.47;;;;;;;23.53;58.62;99719.56;2058391;28;20317;-49
2021/09/12 03:18:37;;;;;;;2.10;1.90;;;;;;;23.53;58.72;99725.06;2064215;28;20503;-48
2021/09/12 03:19:38;;;;;;;1.90;1.43;;;;;;;23.53;58.57;99724.22;2060405;28;20025;-49
2021/09/12 03:20:38;;;;;;;1.42;1.33;;;;;;;23.54;58.64;99724.03;2058191;28;20065;-48
2021/09/12 03:21:39;;;;;;;1.37;1.27;;;;;;;23.54;58.55;99718.53;2061653;28;20029;-49
2021/09/12 03:22:39;;;;;;;2.00;1.63;;;;;;;23.53;58.70;99716.81;2058656;28;20113;-49
2021/09/12 03:23:40;;;;;;;1.33;1.20;;;;;;;23.53;58.67;99715.97;2059503;28;20249;-49
2021/09/12 03:24:40;;;;;;;1.27;1.17;;;;;;;23.52;58.64;99720.63;2060561;28;20420;-49
2021/09/12 03:25:41;;;;;;;2.07;1.77;;;;;;;23.53;58.68;99722.31;2060091;28;20040;-48
2021/09/12 03:26:41;;;;;;;2.10;1.40;;;;;;;23.53;58.59;99716.81;2059796;28;20054;-48
2021/09/12 03:27:41;;;;;;;2.63;1.60;;;;;;;23.52;58.61;99720.63;2059582;28;20224;-49
2021/09/12 03:28:42;;;;;;;1.60;1.50;;;;;;;23.53;58.62;99726.97;2058760;28;20250;-48
2021/09/12 03:29:42;;;;;;;1.30;1.20;;;;;;;23.53;58.61;99715.97;2059208;28;20021;-48
2021/09/12 03:30:43;;;;;;;1.90;1.70;;;;;;;23.53;58.62;99727.81;2059314;28;20358;-49
2021/09/12 03:31:44;;;;;;;1.30;1.20;;;;;;;23.52;58.43;99720.63;2060946;28;20046;-49
2021/09/12 03:32:44;;;;;;;1.57;1.40;;;;;;;23.53;58.45;99721.47;2064907;28;20452;-49
2021/09/12 03:33:44;;;;;;;1.73;1.40;;;;;;;23.53;58.55;99732.47;2063601;28;20103;-49
2021/09/12 03:34:45;;;;;;;1.73;1.57;;;;;;;23.53;58.61;99729.72;2058787;28;20881;-49
2021/09/12 03:35:45;;;;;;;1.77;1.47;;;;;;;23.53;58.63;99733.31;2060203;28;20100;-49
2021/09/12 03:36:46;;;;;;;2.07;1.60;;;;;;;23.53;58.54;99736.06;2059517;28;20026;-49
2021/09/12 03:37:47;;;;;;;2.17;1.50;;;;;;;23.52;58.69;99731.63;2059666;28;20518;-49
2021/09/12 03:38:47;;;;;;;2.13;1.60;;;;;;;23.52;58.65;99728.88;2059289;28;20108;-48
2021/09/12 03:39:48;;;;;;;1.77;1.50;;;;;;;23.53;58.67;99726.97;2059345;28;20431;-49
2021/09/12 03:40:48;;;;;;;1.50;1.40;;;;;;;23.52;58.53;99723.38;2059948;28;20671;-49
2021/09/12 03:41:48;;;;;;;1.13;1.03;;;;;;;23.53;58.58;99732.47;2060102;28;20030;-49
2021/09/12 03:42:49;;;;;;;1.30;1.20;;;;;;;23.52;58.50;99731.63;2061144;28;20429;-49
2021/09/12 03:43:49;;;;;;;1.80;1.50;;;;;;;23.51;58.59;99729.91;2056719;28;20108;-49
2021/09/12 03:44:50;;;;;;;1.47;1.30;;;;;;;23.53;58.60;99724.22;2055716;28;20025;-49
2021/09/12 03:45:50;;;;;;;1.60;1.37;;;;;;;23.52;58.64;99731.63;2057025;28;20034;-49
2021/09/12 03:46:51;;;;;;;2.07;1.60;;;;;;;23.53;58.57;99732.47;2059981;28;20081;-49
2021/09/12 03:47:51;;;;;;;1.53;1.20;;;;;;;23.52;58.56;99726.13;2060941;28;20036;-49
2021/09/12 03:48:52;;;;;;;1.53;1.30;;;;;;;23.52;58.61;99726.13;2065131;28;20025;-49
2021/09/12 03:49:52;;;;;;;1.83;1.30;;;;;;;23.51;58.60;99727.13;2059279;28;20115;-49
2021/09/12 03:50:53;;;;;;;1.50;1.10;;;;;;;23.51;58.64;99729.91;2057135;28;20029;-48
2021/09/12 03:51:53;;;;;;;2.00;1.10;;;;;;;23.53;58.52;99721.47;2056190;28;20030;-48
2021/09/12 03:52:55;;;;;;;1.57;1.40;;;;;;;23.51;58.60;99721.63;2055985;28;20349;-49
2021/09/12 03:53:55;;;;;;;1.42;1.33;;;;;;;23.52;58.61;99723.38;2063260;28;20028;-48
2021/09/12 03:54:56;;;;;;;1.43;1.20;;;;;;;23.51;58.81;99729.91;2056172;28;20037;-49
2021/09/12 03:55:56;;;;;;;1.50;1.27;;;;;;;23.52;58.63;99728.88;2060554;28;20025;-49
2021/09/12 03:56:57;;;;;;;1.50;1.27;;;;;;;23.51;58.56;99716.13;2058867;28;20112;-49
2021/09/12 03:57:57;;;;;;;1.60;1.50;;;;;;;23.51;58.57;99724.38;2058501;28;20018;-49
2021/09/12 03:58:58;;;;;;;1.50;1.37;;;;;;;23.50;58.55;99722.69;2065128;28;20025;-49
2021/09/12 03:59:58;;;;;;;1.63;1.53;;;;;;;23.50;58.55;99717.19;2060941;28;20049;-47
2021/09/12 04:00:59;;;;;;;1.60;1.50;;;;;;;23.50;58.62;99719.94;2059847;28;20073;-47
2021/09/12 04:01:59;;;;;;;1.23;1.10;;;;;;;23.51;58.46;99712.53;2065047;28;20029;-47
2021/09/12 04:03:00;;;;;;;1.40;1.10;;;;;;;23.51;58.60;99712.53;2057966;28;20112;-47
2021/09/12 04:04:01;;;;;;;2.70;1.40;;;;;;;23.51;58.58;99718.88;2066108;28;20044;-47
2021/09/12 04:05:01;;;;;;;2.00;1.50;;;;;;;23.51;58.64;99712.53;2063238;28;20036;-48
2021/09/12 04:06:02;;;;;;;2.03;1.30;;;;;;;23.50;58.54;99714.44;2061069;28;20018;-48
2021/09/12 04:07:02;;;;;;;1.50;1.30;;;;;;;23.50;58.58;99706.19;2061284;28;20029;-48
2021/09/12 04:08:03;;;;;;;1.20;1.10;;;;;;;23.50;58.37;99716.34;2060018;28;20155;-48
2021/09/12 04:09:04;;;;;;;1.77;1.53;;;;;;;23.50;58.45;99719.09;2061271;28;20038;-48
2021/09/12 04:10:09;;;;;;;1.30;1.20;;;;;;;23.50;58.60;99719.94;2056911;28;20023;-47
2021/09/12 04:11:09;;;;;;;1.38;1.27;;;;;;;23.49;58.57;99721.00;2064622;28;20103;-47
2021/09/12 04:12:10;;;;;;;1.73;1.53;;;;;;;23.50;58.58;99717.19;2061275;28;20064;-48
2021/09/12 04:13:10;;;;;;;1.47;1.30;;;;;;;23.50;58.64;99706.19;2058445;28;20026;-47
2021/09/12 04:14:11;;;;;;;1.80;1.60;;;;;;;23.50;58.67;99710.84;2059083;28;20101;-48
2021/09/12 04:15:11;;;;;;;1.33;1.23;;;;;;;23.50;58.60;99716.34;2060035;28;20939;-48
2021/09/12 04:16:12;;;;;;;1.53;1.37;;;;;;;23.52;58.64;99722.53;2059268;28;20553;-48
2021/09/12 04:17:12;;;;;;;1.47;1.37;;;;;;;23.50;58.47;99719.94;2055742;28;20539;-48
2021/09/12 04:18:13;;;;;;;1.47;1.20;;;;;;;23.49;58.61;99712.75;2058416;28;20164;-48
2021/09/12 04:19:13;;;;;;;1.07;1.07;;;;;;;23.50;58.63;99714.44;2074591;28;20538;-48
2021/09/12 04:20:14;;;;;;;2.13;1.77;;;;;;;23.49;58.58;99710.00;2066323;28;20607;-47
2021/09/12 04:21:14;;;;;;;2.47;1.50;;;;;;;23.50;58.56;99722.69;2061278;28;20466;-48
2021/09/12 04:22:15;;;;;;;1.40;1.30;;;;;;;23.49;58.56;99721.00;2058700;28;20022;-48
2021/09/12 04:23:15;;;;;;;1.33;1.07;;;;;;;23.48;58.63;99712.94;2059709;28;20029;-47
2021/09/12 04:24:16;;;;;;;1.30;1.20;;;;;;;23.49;58.56;99720.13;2060603;28;20109;-48
2021/09/12 04:25:16;;;;;;;1.60;1.30;;;;;;;23.50;58.48;99717.19;2059658;28;20367;-47
2021/09/12 04:26:17;;;;;;;1.80;1.47;;;;;;;23.49;58.58;99721.00;2058524;28;20131;-47
2021/09/12 04:27:18;;;;;;;1.70;1.58;;;;;;;23.49;58.60;99715.50;2057377;28;20030;-48
2021/09/12 04:28:18;;;;;;;1.73;1.23;;;;;;;23.49;58.60;99720.13;2057778;28;20033;-48
2021/09/12 04:29:19;;;;;;;1.40;1.30;;;;;;;23.49;58.54;99721.00;2067054;28;20396;-48
2021/09/12 04:30:19;;;;;;;2.20;1.07;;;;;;;23.49;58.51;99712.75;2059706;28;20014;-48
2021/09/12 04:31:20;;;;;;;1.73;1.53;;;;;;;23.49;58.64;99720.13;2061869;28;20102;-48
2021/09/12 04:32:20;;;;;;;2.23;1.40;;;;;;;23.50;58.57;99714.44;2059341;28;20482;-48
2021/09/12 04:33:21;;;;;;;1.40;1.30;;;;;;;23.49;58.50;99718.25;2056345;28;20025;-47
2021/09/12 04:34:21;;;;;;;1.87;1.53;;;;;;;23.48;58.59;99713.78;2061364;28;20124;-48
2021/09/12 04:35:22;;;;;;;1.33;1.20;;;;;;;23.49;58.13;99720.13;2057087;28;20325;-48
2021/09/12 04:36:23;;;;;;;1.67;1.40;;;;;;;23.48;58.50;99716.53;2058900;28;20033;-48
2021/09/12 04:37:23;;;;;;;1.97;1.20;;;;;;;23.48;58.52;99716.53;2067228;28;20017;-48
2021/09/12 04:38:24;;;;;;;1.50;1.40;;;;;;;23.48;58.49;99713.78;2061454;28;20269;-48
2021/09/12 04:39:24;;;;;;;1.67;1.47;;;;;;;23.49;58.49;99721.00;2064120;28;20049;-48
2021/09/12 04:40:25;;;;;;;1.70;1.43;;;;;;;23.49;58.38;99725.63;2058268;28;20045;-47
2021/09/12 04:41:25;;;;;;;1.40;1.10;;;;;;;23.49;58.46;99720.13;2058590;28;20797;-47
2021/09/12 04:42:25;;;;;;;1.50;1.40;;;;;;;23.49;58.64;99715.50;2059771;28;20154;-48
2021/09/12 04:43:26;;;;;;;1.80;1.40;;;;;;;23.48;58.51;99713.78;2063881;28;20417;-48
2021/09/12 04:44:27;;;;;;;1.47;1.23;;;;;;;23.48;58.43;99724.78;2059670;28;20377;-47
2021/09/12 04:45:27;;;;;;;1.57;1.47;;;;;;;23.48;58.44;99722.03;2059246;28;20556;-47
2021/09/12 04:46:28;;;;;;;1.57;1.30;;;;;;;23.48;58.48;99724.78;2059076;28;20538;-47